Metar Cercanos

 

LEPA - Palma De Mallorc, Spain
Distance from station: ONO 38km
Actualización: Fri, 14-May-2021 2:30pm CEST
Few Clouds
Few Clouds
 Viento del NO
Viento: NO 31 km/h
Temperatura: 21°C
Rocío: 5°C
Humedad: 35%
Barómetro: 1015 hPa
Clouds: Few Clouds
Visibility: 10 km
Cloud details: Few Clouds 701 m
2021/05/14 12:30 LEPA 141230Z 32017KT 280V350 9999 FEW023 21/05 Q1015 NOSIG
LEMH - Mahon/Menorca Is, Spain
Distance from station: ENE 105km
Actualización: Fri, 14-May-2021 2:30pm CEST
Few Clouds
Few Clouds
 Viento del NNE
Viento: NNE 35 km/h
Temperatura: 19°C
Rocío: 7°C
Humedad: 46%
Barómetro: 1015 hPa
Clouds: Few Clouds
Visibility: 10 km
Cloud details: Few Clouds 610 m
2021/05/14 12:30 LEMH 141230Z 03019KT 9999 FEW020 19/07 Q1015
 
LEIB - Ibiza/Es Codola, Spain
Distance from station: OSO 165km
Actualización: Fri, 14-May-2021 2:30pm CEST
Few Clouds
Few Clouds
 Viento del NNO
Viento: NNO 30 km/h
Temperatura: 23°C
Rocío: 5°C
Humedad: 31%
Barómetro: 1016 hPa
Clouds: Few Clouds
Visibility: 10 km
Cloud details: Few Clouds 1067 m
2021/05/14 12:30 LEIB 141230Z 34016KT 300V020 9999 FEW035 23/05 Q1016 NOSIG
LEBL - Barcelona Airpor, Spain
Distance from station: NNO 225km
Actualización: Fri, 14-May-2021 2:30pm CEST
Few Clouds
Few Clouds
 Viento del S
Viento: S 19 km/h
Temperatura: 18°C
Rocío: 10°C
Humedad: 60%
Barómetro: 1014 hPa
Clouds: Few Clouds
Visibility: 10 km
Cloud details: Few Clouds 1219 m
2021/05/14 12:30 LEBL 141230Z 17010KT 150V220 9999 FEW040 18/10 Q1014 NOSIG
 
LEVC - Valencia (civ/Mi, Spain
Distance from station: NO 188km
Actualización: Fri, 14-May-2021 2:30pm CEST
Few Clouds
Few Clouds
 Viento del SE
Viento: SE 17 km/h
Temperatura: 23°C
Rocío: 9°C
Humedad: 41%
Barómetro: 1015 hPa
Clouds: Few Clouds
Visibility: 10 km
Cloud details: Few Clouds 1372 m
2021/05/14 12:30 LEVC 141230Z 13009KT 080V170 9999 FEW045 23/09 Q1015 NOSIG
LEGE - Gerona/Costa Bra, Spain
Distance from station: N 276km
Actualización: Fri, 14-May-2021 2:30pm CEST
Nearby thunderstorm, Muy nuboso
Nearby thunderstorm, Muy nuboso
 Viento del S
Viento: S 19 km/h
Temperatura: 16°C
Rocío: 12°C
Humedad: 77%
Barómetro: 1013 hPa
Resumen: Nearby Thunderstorm
Clouds: Muy nuboso
Visibility: 10 km
Cloud details: Few Clouds 488 m
Few Clouds 671 m
Muy nuboso 1097 m
2021/05/14 12:30 LEGE 141230Z 17010KT 120V220 9999 VCTS FEW016 FEW022CB BKN036 16/12 Q1013 RETSRA
 
LEAL - Alicante/El Alte, Spain
Distance from station: OSO 344km
Actualización: Fri, 14-May-2021 2:30pm CEST
Despejado
Despejado
 Viento del ONO
Viento: ONO 19 km/h
Temperatura: 27°C
Rocío: 6°C
Humedad: 26%
Barómetro: 1015 hPa
Resumen: Despejado
Visibility: greater than 10 km
2021/05/14 12:30 LEAL 141230Z 30010KT 260V350 CAVOK 27/06 Q1015 NOSIG
LEAM - Almeria Airport, Spain
Distance from station: SSO 56km
Actualización: Fri, 14-May-2021 2:30pm CEST
Despejado
Despejado
 Viento del SO
Viento: SO 11 km/h
Temperatura: 21°C
Rocío: 15°C
Humedad: 69%
Barómetro: 1016 hPa
Resumen: Despejado
Visibility: greater than 10 km
2021/05/14 12:30 LEAM 141230Z 23006KT 200V260 CAVOK 21/15 Q1016
 
LEZG - Zaragoza (mil/Ci, Spain
Distance from station: NO 431km
Actualización: Fri, 14-May-2021 2:30pm CEST
Few Clouds
Few Clouds
 Viento del ONO
Viento: ONO 30 km/h
Temperatura: 18°C
Rocío: 7°C
Humedad: 49%
Barómetro: 1017 hPa
Clouds: Few Clouds
Visibility: 10 km
Cloud details: Few Clouds 1372 m
2021/05/14 12:30 LEZG 141230Z 30016KT 270V330 9999 FEW045 18/07 Q1017
LEMD - Madrid/Barajas, Spain
Distance from station: ONO 234km
Actualización: Fri, 14-May-2021 2:30pm CEST
Few Clouds
Few Clouds
 Viento del S
Viento: S 11 km/h
Temperatura: 21°C
Rocío: 5°C
Humedad: 35%
Barómetro: 1017 hPa
Clouds: Few Clouds
Visibility: 10 km
Cloud details: Few Clouds 1219 m
2021/05/14 12:30 LEMD 141230Z 17006KT 9999 FEW040 21/05 Q1017 NOSIG
 
LEGR - Granada Airport, Spain
Distance from station: OSO 62km
Actualización: Fri, 14-May-2021 2:30pm CEST
Despejado
Despejado
 Viento del varies
Viento: varies 2 km/h
Temperatura: 24°C
Rocío: 6°C
Humedad: 31%
Barómetro: 1018 hPa
Resumen: Despejado
Visibility: greater than 10 km
2021/05/14 12:30 LEGR 141230Z VRB01KT CAVOK 24/06 Q1018
LEMG - Malaga (civ/Mil), Spain
Distance from station: OSO 227km
Actualización: Fri, 14-May-2021 2:30pm CEST
Despejado
Despejado
 Viento del ONO
Viento: ONO 26 km/h
Temperatura: 28°C
Rocío: 8°C
Humedad: 28%
Barómetro: 1015 hPa
Resumen: Despejado
Visibility: greater than 10 km
2021/05/14 12:30 LEMG 141230Z 29014KT CAVOK 28/08 Q1015 NOSIG
 
LEZL - Sevilla (civ/Mil, Spain
Distance from station: S 318km
Actualización: Fri, 14-May-2021 2:30pm CEST
Despejado
Despejado
 Viento del ENE
Viento: ENE 6 km/h
Temperatura: 23°C
Rocío: 9°C
Humedad: 41%
Barómetro: 1018 hPa
Resumen: Despejado
Visibility: greater than 10 km
2021/05/14 12:30 LEZL 141230Z 06003KT CAVOK 23/09 Q1018 NOSIG
LEVT - Vitoria, Spain
Distance from station: NO 226km
Actualización: Fri, 14-May-2021 2:30pm CEST
Parcialmente nuboso
Parcialmente nuboso
 Viento del N
Viento: N 7 km/h
Temperatura: 14°C
Rocío: 4°C
Humedad: 51%
Barómetro: 1018 hPa
Clouds: Parcialmente nuboso
Visibility: 10 km
Cloud details: Few Clouds 1219 m
Parcialmente nuboso 1524 m
2021/05/14 12:30 LEVT 141230Z 35004KT 9999 FEW040 SCT050 14/04 Q1018
 
LEBB - Bilbao/Sondica, Spain
Distance from station: NNO 235km
Actualización: Fri, 14-May-2021 2:30pm CEST
Parcialmente nuboso
Parcialmente nuboso
 Viento del NNO
Viento: NNO 11 km/h
Temperatura: 17°C
Rocío: 8°C
Humedad: 56%
Barómetro: 1019 hPa
Clouds: Parcialmente nuboso
Visibility: 10 km
Cloud details: Few Clouds 1097 m
Parcialmente nuboso 1768 m
2021/05/14 12:30 LEBB 141230Z 34006KT 300V030 9999 FEW036 SCT058 17/08 Q1019 NOSIG
LESO - San Sebastian/Fu, Spain
Distance from station: N 231km
Actualización: Fri, 14-May-2021 2:30pm CEST
Parcialmente nuboso
Parcialmente nuboso
 Viento del ONO
Viento: ONO 17 km/h
Temperatura: 15°C
Rocío: 10°C
Humedad: 72%
Barómetro: 1019 hPa
Clouds: Parcialmente nuboso
Visibility: 10 km
Cloud details: Parcialmente nuboso 1067 m
2021/05/14 12:30 LESO 141230Z 29009KT 240V330 9999 SCT035 15/10 Q1019
 
LEVD - Valladolid(Mil/C, Spain
Distance from station: ONO 239km
Actualización: Fri, 14-May-2021 2:30pm CEST
Few Clouds
Few Clouds
 Viento del OSO
Viento: OSO 13 km/h
Temperatura: 15°C
Rocío: 5°C
Humedad: 51%
Barómetro: 1019 hPa
Clouds: Few Clouds
Visibility: 10 km
Cloud details: Few Clouds 1372 m
2021/05/14 12:30 LEVD 141230Z 24007KT 170V290 9999 FEW045 15/05 Q1019
LESA - Salamanca (civ/M, Spain
Distance from station: ONO 349km
Actualización: Fri, 14-May-2021 2:30pm CEST
Despejado
Despejado
 Viento del O
Viento: O 11 km/h, Racha: 33 km/h
Temperatura: 16°C
Rocío: 4°C
Humedad: 45%
Barómetro: 1019 hPa
Resumen: Despejado
Visibility: greater than 10 km
2021/05/14 12:30 LESA 141230Z 26006G18KT 220V320 CAVOK 16/04 Q1019
 
LEXJ - Santander/Paraya, Spain
Distance from station: NNO 247km
Actualización: Fri, 14-May-2021 2:30pm CEST
Few Clouds
Few Clouds
 Viento del NNO
Viento: NNO 7 km/h
Temperatura: 16°C
Rocío: 9°C
Humedad: 63%
Barómetro: 1018 hPa
Clouds: Few Clouds
Visibility: 10 km
Cloud details: Few Clouds 1097 m
2021/05/14 12:30 LEXJ 141230Z 34004KT 250V060 9999 FEW036 16/09 Q1018
LEAS - Asturias/Aviles, Spain
Distance from station: NO 214km
Actualización: Fri, 14-May-2021 2:30pm CEST
Few Clouds
Few Clouds
 Viento del NO
Viento: NO 11 km/h
Temperatura: 14°C
Rocío: 8°C
Humedad: 67%
Barómetro: 1018 hPa
Clouds: Few Clouds
Visibility: 10 km
Cloud details: Few Clouds 914 m
2021/05/14 12:30 LEAS 141230Z 32006KT 280V020 9999 FEW030 14/08 Q1018 NOSIG
 
LECO - La Coruna/Alvedr, Spain
Distance from station: ONO 222km
Actualización: Fri, 14-May-2021 2:30pm CEST
Muy nuboso
Muy nuboso
 Viento del S
Viento: S 20 km/h
Temperatura: 16°C
Rocío: 10°C
Humedad: 68%
Barómetro: 1018 hPa
Clouds: Muy nuboso
Visibility: 10 km
Cloud details: Muy nuboso 1311 m
2021/05/14 12:30 LECO 141230Z 19011KT 160V220 9999 BKN043 16/10 Q1018 NOSIG
LEVX - Vigo/Peinador, Spain
Distance from station: O 214km
Actualización: Fri, 14-May-2021 2:30pm CEST
Few Clouds
Few Clouds
 Viento del O
Viento: O 9 km/h
Temperatura: 16°C
Rocío: 10°C
Humedad: 68%
Barómetro: 1020 hPa
Clouds: Few Clouds
Visibility: 10 km
Cloud details: Few Clouds 853 m
2021/05/14 12:30 LEVX 141230Z 27005KT 230V330 9999 FEW028 16/10 Q1020 NOSIG